sensor_id;sensor_type;location;lat;lon;timestamp;pressure;altitude;pressure_sealevel;temperature;humidity
9764;BME280;4921;43.214;27.936;2024-02-26T00:01:39;100877.19;;;10.80;64.47
9764;BME280;4921;43.214;27.936;2024-02-26T00:04:04;100878.56;;;10.86;64.39
9764;BME280;4921;43.214;27.936;2024-02-26T00:06:30;100884.41;;;10.96;64.15
9764;BME280;4921;43.214;27.936;2024-02-26T00:08:56;100865.72;;;10.78;64.89
9764;BME280;4921;43.214;27.936;2024-02-26T00:11:22;100870.44;;;10.77;64.92
9764;BME280;4921;43.214;27.936;2024-02-26T00:13:47;100869.16;;;10.75;64.81
9764;BME280;4921;43.214;27.936;2024-02-26T00:16:13;100868.94;;;10.68;64.90
9764;BME280;4921;43.214;27.936;2024-02-26T00:18:39;100859.44;;;10.65;64.19
9764;BME280;4921;43.214;27.936;2024-02-26T00:21:04;100858.50;;;10.73;64.68
9764;BME280;4921;43.214;27.936;2024-02-26T00:23:30;100860.13;;;10.62;65.33
9764;BME280;4921;43.214;27.936;2024-02-26T00:25:55;100860.22;;;10.54;66.26
9764;BME280;4921;43.214;27.936;2024-02-26T00:28:21;100857.00;;;10.64;65.72
9764;BME280;4921;43.214;27.936;2024-02-26T00:30:47;100841.88;;;10.58;65.64
9764;BME280;4921;43.214;27.936;2024-02-26T00:33:16;100851.06;;;10.62;64.50
9764;BME280;4921;43.214;27.936;2024-02-26T00:35:42;100855.63;;;10.70;64.09
9764;BME280;4921;43.214;27.936;2024-02-26T00:38:08;100841.41;;;10.68;64.40
9764;BME280;4921;43.214;27.936;2024-02-26T00:40:33;100850.69;;;10.75;63.92
9764;BME280;4921;43.214;27.936;2024-02-26T00:42:59;100844.59;;;10.82;64.16
9764;BME280;4921;43.214;27.936;2024-02-26T00:45:25;100845.53;;;10.86;63.38
9764;BME280;4921;43.214;27.936;2024-02-26T00:47:50;100835.44;;;10.66;64.25
9764;BME280;4921;43.214;27.936;2024-02-26T00:50:16;100841.63;;;10.75;64.86
9764;BME280;4921;43.214;27.936;2024-02-26T00:52:41;100824.28;;;10.74;63.76
9764;BME280;4921;43.214;27.936;2024-02-26T00:55:07;100832.00;;;10.81;63.55
9764;BME280;4921;43.214;27.936;2024-02-26T00:57:33;100832.66;;;10.90;64.51
9764;BME280;4921;43.214;27.936;2024-02-26T01:00:00;100833.69;;;10.85;64.26
9764;BME280;4921;43.214;27.936;2024-02-26T01:02:26;100827.84;;;10.75;63.68
9764;BME280;4921;43.214;27.936;2024-02-26T01:04:52;100833.81;;;10.77;64.51
9764;BME280;4921;43.214;27.936;2024-02-26T01:07:19;100826.84;;;10.79;64.07
9764;BME280;4921;43.214;27.936;2024-02-26T01:09:45;100809.59;;;10.82;63.75
9764;BME280;4921;43.214;27.936;2024-02-26T01:12:10;100822.91;;;10.80;63.94
9764;BME280;4921;43.214;27.936;2024-02-26T01:14:35;100822.94;;;10.68;63.96
9764;BME280;4921;43.214;27.936;2024-02-26T01:17:01;100817.09;;;10.70;65.47
9764;BME280;4921;43.214;27.936;2024-02-26T01:19:27;100803.00;;;10.59;64.77
9764;BME280;4921;43.214;27.936;2024-02-26T01:21:53;100807.00;;;10.62;64.92
9764;BME280;4921;43.214;27.936;2024-02-26T01:24:18;100816.06;;;10.50;67.17
9764;BME280;4921;43.214;27.936;2024-02-26T01:26:44;100800.13;;;10.56;65.82
9764;BME280;4921;43.214;27.936;2024-02-26T01:29:09;100803.59;;;10.53;66.40
9764;BME280;4921;43.214;27.936;2024-02-26T01:31:35;100824.56;;;10.57;66.77
9764;BME280;4921;43.214;27.936;2024-02-26T01:34:01;100813.41;;;10.66;66.14
9764;BME280;4921;43.214;27.936;2024-02-26T01:36:27;100820.75;;;10.74;66.71
9764;BME280;4921;43.214;27.936;2024-02-26T01:38:52;100817.91;;;10.70;65.92
9764;BME280;4921;43.214;27.936;2024-02-26T01:41:18;100815.81;;;10.67;66.43
9764;BME280;4921;43.214;27.936;2024-02-26T01:43:43;100819.41;;;10.56;66.22
9764;BME280;4921;43.214;27.936;2024-02-26T01:46:14;100816.97;;;10.66;66.46
9764;BME280;4921;43.214;27.936;2024-02-26T01:48:43;100815.03;;;10.67;65.53
9764;BME280;4921;43.214;27.936;2024-02-26T01:51:12;100813.88;;;10.56;66.86
9764;BME280;4921;43.214;27.936;2024-02-26T01:53:40;100814.69;;;10.32;68.30
9764;BME280;4921;43.214;27.936;2024-02-26T01:56:06;100828.91;;;10.34;69.42
9764;BME280;4921;43.214;27.936;2024-02-26T01:58:32;100835.47;;;10.18;70.52
9764;BME280;4921;43.214;27.936;2024-02-26T02:00:59;100835.94;;;10.20;71.04
9764;BME280;4921;43.214;27.936;2024-02-26T02:03:25;100821.94;;;10.13;71.81
9764;BME280;4921;43.214;27.936;2024-02-26T02:05:50;100811.22;;;9.99;70.96
9764;BME280;4921;43.214;27.936;2024-02-26T02:08:16;100830.59;;;10.02;71.20
9764;BME280;4921;43.214;27.936;2024-02-26T02:10:42;100830.69;;;9.94;71.33
9764;BME280;4921;43.214;27.936;2024-02-26T02:13:07;100832.44;;;9.98;72.20
9764;BME280;4921;43.214;27.936;2024-02-26T02:15:33;100837.38;;;10.05;71.41
9764;BME280;4921;43.214;27.936;2024-02-26T02:17:59;100830.47;;;9.99;71.39
9764;BME280;4921;43.214;27.936;2024-02-26T02:20:31;100834.25;;;9.94;71.47
9764;BME280;4921;43.214;27.936;2024-02-26T02:22:58;100822.09;;;9.83;72.37
9764;BME280;4921;43.214;27.936;2024-02-26T02:25:23;100829.22;;;9.96;71.93
9764;BME280;4921;43.214;27.936;2024-02-26T02:27:49;100821.22;;;10.03;71.24
9764;BME280;4921;43.214;27.936;2024-02-26T02:30:16;100819.94;;;10.01;70.82
9764;BME280;4921;43.214;27.936;2024-02-26T02:32:42;100822.44;;;10.06;70.77
9764;BME280;4921;43.214;27.936;2024-02-26T02:35:08;100809.88;;;10.29;70.88
9764;BME280;4921;43.214;27.936;2024-02-26T02:37:34;100812.28;;;10.31;69.24
9764;BME280;4921;43.214;27.936;2024-02-26T02:39:59;100815.72;;;10.03;70.31
9764;BME280;4921;43.214;27.936;2024-02-26T02:42:26;100817.75;;;10.06;70.87
9764;BME280;4921;43.214;27.936;2024-02-26T02:44:51;100809.53;;;10.31;69.38
9764;BME280;4921;43.214;27.936;2024-02-26T02:47:17;100809.31;;;10.36;69.92
9764;BME280;4921;43.214;27.936;2024-02-26T02:49:42;100799.34;;;10.31;70.45
9764;BME280;4921;43.214;27.936;2024-02-26T02:52:08;100811.50;;;10.42;68.87
9764;BME280;4921;43.214;27.936;2024-02-26T02:54:33;100796.34;;;10.36;68.83
9764;BME280;4921;43.214;27.936;2024-02-26T02:56:59;100812.97;;;10.52;69.44
9764;BME280;4921;43.214;27.936;2024-02-26T02:59:25;100815.03;;;10.43;70.30
9764;BME280;4921;43.214;27.936;2024-02-26T03:01:50;100819.19;;;10.49;68.65
9764;BME280;4921;43.214;27.936;2024-02-26T03:04:16;100812.06;;;10.48;69.20
9764;BME280;4921;43.214;27.936;2024-02-26T03:06:41;100804.47;;;10.57;68.15
9764;BME280;4921;43.214;27.936;2024-02-26T03:09:07;100820.44;;;10.63;68.41
9764;BME280;4921;43.214;27.936;2024-02-26T03:11:32;100817.34;;;10.53;69.49
9764;BME280;4921;43.214;27.936;2024-02-26T03:13:58;100822.06;;;10.40;68.92
9764;BME280;4921;43.214;27.936;2024-02-26T03:16:23;100810.59;;;10.26;70.99
9764;BME280;4921;43.214;27.936;2024-02-26T03:18:49;100820.44;;;10.27;70.52
9764;BME280;4921;43.214;27.936;2024-02-26T03:21:14;100821.38;;;10.19;71.77
9764;BME280;4921;43.214;27.936;2024-02-26T03:23:40;100816.09;;;10.26;70.82
9764;BME280;4921;43.214;27.936;2024-02-26T03:26:05;100821.94;;;10.37;71.62
9764;BME280;4921;43.214;27.936;2024-02-26T03:28:31;100826.75;;;10.40;70.44
9764;BME280;4921;43.214;27.936;2024-02-26T03:31:01;100817.69;;;10.39;70.93
9764;BME280;4921;43.214;27.936;2024-02-26T03:33:27;100822.06;;;10.28;71.29
9764;BME280;4921;43.214;27.936;2024-02-26T03:35:53;100833.19;;;10.20;73.14
9764;BME280;4921;43.214;27.936;2024-02-26T03:38:18;100823.78;;;10.21;72.58
9764;BME280;4921;43.214;27.936;2024-02-26T03:40:44;100817.66;;;10.03;72.16
9764;BME280;4921;43.214;27.936;2024-02-26T03:43:09;100824.00;;;10.28;72.11
9764;BME280;4921;43.214;27.936;2024-02-26T03:45:35;100826.50;;;10.33;71.72
9764;BME280;4921;43.214;27.936;2024-02-26T03:48:00;100832.00;;;10.45;71.21
9764;BME280;4921;43.214;27.936;2024-02-26T03:50:26;100833.75;;;10.37;71.53
9764;BME280;4921;43.214;27.936;2024-02-26T03:52:51;100841.66;;;10.15;73.60
9764;BME280;4921;43.214;27.936;2024-02-26T03:55:17;100814.31;;;9.97;72.90
9764;BME280;4921;43.214;27.936;2024-02-26T03:57:46;100839.53;;;9.99;73.86
9764;BME280;4921;43.214;27.936;2024-02-26T04:00:12;100824.84;;;9.95;74.49
9764;BME280;4921;43.214;27.936;2024-02-26T04:02:38;100839.75;;;9.94;74.45
9764;BME280;4921;43.214;27.936;2024-02-26T04:05:04;100840.56;;;9.95;75.01
9764;BME280;4921;43.214;27.936;2024-02-26T04:07:30;100835.84;;;9.83;75.06
9764;BME280;4921;43.214;27.936;2024-02-26T04:09:55;100832.84;;;9.76;75.05
9764;BME280;4921;43.214;27.936;2024-02-26T04:12:21;100826.22;;;9.77;75.99
9764;BME280;4921;43.214;27.936;2024-02-26T04:14:47;100834.94;;;9.91;74.78
9764;BME280;4921;43.214;27.936;2024-02-26T04:17:12;100830.22;;;9.92;74.29
9764;BME280;4921;43.214;27.936;2024-02-26T04:19:37;100833.66;;;9.89;74.69
9764;BME280;4921;43.214;27.936;2024-02-26T04:22:03;100837.69;;;9.91;75.55
9764;BME280;4921;43.214;27.936;2024-02-26T04:24:29;100831.63;;;9.98;73.47
9764;BME280;4921;43.214;27.936;2024-02-26T04:26:54;100834.50;;;10.01;74.04
9764;BME280;4921;43.214;27.936;2024-02-26T04:29:20;100823.72;;;9.96;74.18
9764;BME280;4921;43.214;27.936;2024-02-26T04:31:45;100829.84;;;10.14;73.92
9764;BME280;4921;43.214;27.936;2024-02-26T04:34:12;100821.41;;;9.86;75.02
9764;BME280;4921;43.214;27.936;2024-02-26T04:36:37;100820.72;;;9.77;75.17
9764;BME280;4921;43.214;27.936;2024-02-26T04:39:03;100821.97;;;9.92;75.30
9764;BME280;4921;43.214;27.936;2024-02-26T04:41:28;100821.66;;;9.93;75.29
9764;BME280;4921;43.214;27.936;2024-02-26T04:43:54;100819.56;;;9.90;75.52
9764;BME280;4921;43.214;27.936;2024-02-26T04:46:19;100811.44;;;9.82;74.74
9764;BME280;4921;43.214;27.936;2024-02-26T04:48:47;100822.91;;;9.96;75.62
9764;BME280;4921;43.214;27.936;2024-02-26T04:51:13;100826.69;;;9.91;75.01
9764;BME280;4921;43.214;27.936;2024-02-26T04:53:38;100826.13;;;9.98;74.61
9764;BME280;4921;43.214;27.936;2024-02-26T04:56:04;100826.13;;;9.98;74.58
9764;BME280;4921;43.214;27.936;2024-02-26T04:58:30;100815.00;;;10.06;74.37
9764;BME280;4921;43.214;27.936;2024-02-26T05:00:55;100817.22;;;10.13;74.69
9764;BME280;4921;43.214;27.936;2024-02-26T05:03:21;100800.72;;;10.13;74.28
9764;BME280;4921;43.214;27.936;2024-02-26T05:05:46;100816.19;;;10.30;73.27
9764;BME280;4921;43.214;27.936;2024-02-26T05:08:12;100825.38;;;10.34;73.40
9764;BME280;4921;43.214;27.936;2024-02-26T05:10:38;100832.84;;;10.21;73.92
9764;BME280;4921;43.214;27.936;2024-02-26T05:13:06;100823.53;;;10.14;75.20
9764;BME280;4921;43.214;27.936;2024-02-26T05:15:32;100812.25;;;10.06;75.33
9764;BME280;4921;43.214;27.936;2024-02-26T05:17:57;100825.28;;;10.18;74.97
9764;BME280;4921;43.214;27.936;2024-02-26T05:20:23;100817.81;;;10.19;73.76
9764;BME280;4921;43.214;27.936;2024-02-26T05:22:49;100830.03;;;9.97;75.00
9764;BME280;4921;43.214;27.936;2024-02-26T05:25:15;100831.78;;;10.14;74.89
9764;BME280;4921;43.214;27.936;2024-02-26T05:27:41;100838.00;;;10.23;73.63
9764;BME280;4921;43.214;27.936;2024-02-26T05:30:07;100835.94;;;10.32;73.43
9764;BME280;4921;43.214;27.936;2024-02-26T05:32:33;100844.66;;;10.34;74.24
9764;BME280;4921;43.214;27.936;2024-02-26T05:34:58;100838.00;;;10.35;74.11
9764;BME280;4921;43.214;27.936;2024-02-26T05:37:24;100837.63;;;10.36;74.23
9764;BME280;4921;43.214;27.936;2024-02-26T05:39:49;100846.13;;;10.31;74.97
9764;BME280;4921;43.214;27.936;2024-02-26T05:42:15;100845.44;;;10.34;73.73
9764;BME280;4921;43.214;27.936;2024-02-26T05:44:40;100845.31;;;10.43;73.61
9764;BME280;4921;43.214;27.936;2024-02-26T05:47:06;100862.19;;;10.41;74.29
9764;BME280;4921;43.214;27.936;2024-02-26T05:49:31;100866.66;;;10.46;73.25
9764;BME280;4921;43.214;27.936;2024-02-26T05:51:58;100867.44;;;10.46;73.53
9764;BME280;4921;43.214;27.936;2024-02-26T05:54:24;100863.44;;;10.32;73.78
9764;BME280;4921;43.214;27.936;2024-02-26T05:56:49;100865.63;;;10.26;74.26
9764;BME280;4921;43.214;27.936;2024-02-26T05:59:16;100878.69;;;10.29;74.48
9764;BME280;4921;43.214;27.936;2024-02-26T06:01:41;100864.59;;;10.31;75.66
9764;BME280;4921;43.214;27.936;2024-02-26T06:04:07;100875.16;;;10.53;74.25
9764;BME280;4921;43.214;27.936;2024-02-26T06:06:32;100866.88;;;10.77;73.32
9764;BME280;4921;43.214;27.936;2024-02-26T06:08:58;100868.38;;;10.62;74.66
9764;BME280;4921;43.214;27.936;2024-02-26T06:11:23;100868.97;;;10.56;75.26
9764;BME280;4921;43.214;27.936;2024-02-26T06:13:49;100858.63;;;10.77;74.21
9764;BME280;4921;43.214;27.936;2024-02-26T06:16:15;100869.81;;;10.96;73.96
9764;BME280;4921;43.214;27.936;2024-02-26T06:18:40;100862.06;;;11.26;72.83
9764;BME280;4921;43.214;27.936;2024-02-26T06:21:09;100866.38;;;11.39;72.05
9764;BME280;4921;43.214;27.936;2024-02-26T06:23:34;100866.19;;;11.59;71.80
9764;BME280;4921;43.214;27.936;2024-02-26T06:26:19;100869.41;;;12.04;70.41
9764;BME280;4921;43.214;27.936;2024-02-26T06:28:44;100863.69;;;11.97;69.73
9764;BME280;4921;43.214;27.936;2024-02-26T06:31:10;100868.38;;;12.24;69.17
9764;BME280;4921;43.214;27.936;2024-02-26T06:33:35;100875.13;;;12.43;68.49
9764;BME280;4921;43.214;27.936;2024-02-26T06:36:01;100859.44;;;12.31;68.19
9764;BME280;4921;43.214;27.936;2024-02-26T06:38:28;100869.00;;;12.18;69.09
9764;BME280;4921;43.214;27.936;2024-02-26T06:40:53;100872.25;;;12.23;68.99
9764;BME280;4921;43.214;27.936;2024-02-26T06:43:19;100877.63;;;12.32;68.09
9764;BME280;4921;43.214;27.936;2024-02-26T06:45:45;100876.47;;;12.17;68.48
9764;BME280;4921;43.214;27.936;2024-02-26T06:48:10;100881.53;;;12.47;67.91
9764;BME280;4921;43.214;27.936;2024-02-26T06:50:36;100883.59;;;12.65;67.01
9764;BME280;4921;43.214;27.936;2024-02-26T06:53:01;100890.34;;;12.68;66.67
9764;BME280;4921;43.214;27.936;2024-02-26T06:55:27;100887.72;;;13.06;66.47
9764;BME280;4921;43.214;27.936;2024-02-26T06:57:52;100883.38;;;13.43;65.03
9764;BME280;4921;43.214;27.936;2024-02-26T07:00:18;100882.19;;;13.82;64.02
9764;BME280;4921;43.214;27.936;2024-02-26T07:02:44;100885.31;;;14.00;62.77
9764;BME280;4921;43.214;27.936;2024-02-26T07:05:09;100878.72;;;14.08;61.44
9764;BME280;4921;43.214;27.936;2024-02-26T07:07:35;100883.72;;;13.99;61.67
9764;BME280;4921;43.214;27.936;2024-02-26T07:10:01;100891.16;;;14.17;63.10
9764;BME280;4921;43.214;27.936;2024-02-26T07:12:29;100870.13;;;14.13;61.62
9764;BME280;4921;43.214;27.936;2024-02-26T07:14:55;100873.03;;;14.20;61.27
9764;BME280;4921;43.214;27.936;2024-02-26T07:17:20;100873.31;;;14.34;61.50
9764;BME280;4921;43.214;27.936;2024-02-26T07:19:46;100868.59;;;14.38;60.16
9764;BME280;4921;43.214;27.936;2024-02-26T07:22:12;100866.41;;;14.73;59.95
9764;BME280;4921;43.214;27.936;2024-02-26T07:24:37;100870.63;;;14.90;59.37
9764;BME280;4921;43.214;27.936;2024-02-26T07:27:03;100863.03;;;14.61;59.17
9764;BME280;4921;43.214;27.936;2024-02-26T07:29:29;100866.19;;;14.59;59.48
9764;BME280;4921;43.214;27.936;2024-02-26T07:31:55;100873.81;;;14.92;58.91
9764;BME280;4921;43.214;27.936;2024-02-26T07:34:21;100875.84;;;14.95;58.30
9764;BME280;4921;43.214;27.936;2024-02-26T07:36:53;100881.97;;;14.55;58.00
9764;BME280;4921;43.214;27.936;2024-02-26T07:39:19;100869.22;;;14.51;59.11
9764;BME280;4921;43.214;27.936;2024-02-26T07:41:44;100875.63;;;14.81;59.03
9764;BME280;4921;43.214;27.936;2024-02-26T07:44:12;100866.94;;;14.56;57.61
9764;BME280;4921;43.214;27.936;2024-02-26T07:46:37;100878.34;;;14.77;57.84
9764;BME280;4921;43.214;27.936;2024-02-26T07:49:03;100888.34;;;14.59;58.13
9764;BME280;4921;43.214;27.936;2024-02-26T07:51:29;100873.28;;;14.57;57.68
9764;BME280;4921;43.214;27.936;2024-02-26T07:53:54;100886.59;;;14.48;58.83
9764;BME280;4921;43.214;27.936;2024-02-26T07:56:20;100873.72;;;14.36;58.76
9764;BME280;4921;43.214;27.936;2024-02-26T07:58:45;100867.19;;;14.48;58.59
9764;BME280;4921;43.214;27.936;2024-02-26T08:01:15;100870.06;;;14.09;59.32
9764;BME280;4921;43.214;27.936;2024-02-26T08:03:40;100890.81;;;14.41;58.54
9764;BME280;4921;43.214;27.936;2024-02-26T08:06:08;100886.91;;;14.43;59.56
9764;BME280;4921;43.214;27.936;2024-02-26T08:08:33;100876.00;;;14.79;57.67
9764;BME280;4921;43.214;27.936;2024-02-26T08:10:59;100893.41;;;14.54;58.27
9764;BME280;4921;43.214;27.936;2024-02-26T08:13:25;100884.38;;;14.57;58.52
9764;BME280;4921;43.214;27.936;2024-02-26T08:15:52;100886.81;;;14.88;59.04
9764;BME280;4921;43.214;27.936;2024-02-26T08:18:18;100880.84;;;15.12;57.02
9764;BME280;4921;43.214;27.936;2024-02-26T08:20:44;100879.69;;;15.13;56.06
9764;BME280;4921;43.214;27.936;2024-02-26T08:23:10;100875.88;;;15.24;56.09
9764;BME280;4921;43.214;27.936;2024-02-26T08:25:35;100873.94;;;14.99;57.02
9764;BME280;4921;43.214;27.936;2024-02-26T08:28:01;100873.13;;;14.98;56.19
9764;BME280;4921;43.214;27.936;2024-02-26T08:30:26;100886.03;;;14.87;56.82
9764;BME280;4921;43.214;27.936;2024-02-26T08:32:52;100889.47;;;14.55;58.02
9764;BME280;4921;43.214;27.936;2024-02-26T08:35:18;100889.31;;;14.70;57.67
9764;BME280;4921;43.214;27.936;2024-02-26T08:37:47;100875.91;;;14.72;59.17
9764;BME280;4921;43.214;27.936;2024-02-26T08:40:14;100896.44;;;14.94;58.25
9764;BME280;4921;43.214;27.936;2024-02-26T08:42:40;100888.53;;;15.22;58.59
9764;BME280;4921;43.214;27.936;2024-02-26T08:45:05;100898.53;;;15.60;60.95
9764;BME280;4921;43.214;27.936;2024-02-26T08:47:32;100904.03;;;14.48;58.24
9764;BME280;4921;43.214;27.936;2024-02-26T08:49:58;100901.50;;;14.88;60.61
9764;BME280;4921;43.214;27.936;2024-02-26T08:52:23;100905.88;;;15.45;57.37
9764;BME280;4921;43.214;27.936;2024-02-26T08:54:49;100917.22;;;15.07;56.41
9764;BME280;4921;43.214;27.936;2024-02-26T08:57:15;100907.41;;;15.13;56.02
9764;BME280;4921;43.214;27.936;2024-02-26T08:59:40;100890.06;;;15.19;56.15
9764;BME280;4921;43.214;27.936;2024-02-26T09:02:06;100899.31;;;15.01;57.27
9764;BME280;4921;43.214;27.936;2024-02-26T09:04:33;100911.88;;;14.95;56.91
9764;BME280;4921;43.214;27.936;2024-02-26T09:06:59;100903.09;;;14.89;56.88
9764;BME280;4921;43.214;27.936;2024-02-26T09:09:24;100917.09;;;15.26;56.19
9764;BME280;4921;43.214;27.936;2024-02-26T09:11:51;100896.41;;;14.68;57.87
9764;BME280;4921;43.214;27.936;2024-02-26T09:14:18;100916.56;;;14.65;58.04
9764;BME280;4921;43.214;27.936;2024-02-26T09:16:43;100919.03;;;14.96;57.14
9764;BME280;4921;43.214;27.936;2024-02-26T09:19:09;100900.34;;;15.19;56.08
9764;BME280;4921;43.214;27.936;2024-02-26T09:21:34;100903.06;;;15.41;55.88
9764;BME280;4921;43.214;27.936;2024-02-26T09:24:00;100905.19;;;15.85;54.92
9764;BME280;4921;43.214;27.936;2024-02-26T09:26:25;100907.69;;;15.93;54.11
9764;BME280;4921;43.214;27.936;2024-02-26T09:28:51;100904.41;;;15.25;55.02
9764;BME280;4921;43.214;27.936;2024-02-26T09:31:18;100893.13;;;14.85;57.41
9764;BME280;4921;43.214;27.936;2024-02-26T09:33:43;100899.28;;;15.27;55.80
9764;BME280;4921;43.214;27.936;2024-02-26T09:36:09;100895.25;;;14.95;56.50
9764;BME280;4921;43.214;27.936;2024-02-26T09:38:36;100899.03;;;14.83;56.88
9764;BME280;4921;43.214;27.936;2024-02-26T09:41:04;100905.59;;;14.98;56.65
9764;BME280;4921;43.214;27.936;2024-02-26T09:43:34;100898.66;;;15.11;56.34
9764;BME280;4921;43.214;27.936;2024-02-26T09:46:00;100890.81;;;14.41;58.48
9764;BME280;4921;43.214;27.936;2024-02-26T09:48:27;100898.78;;;14.66;58.48
9764;BME280;4921;43.214;27.936;2024-02-26T09:50:53;100896.13;;;14.99;56.60
9764;BME280;4921;43.214;27.936;2024-02-26T09:53:21;100901.59;;;15.21;55.81
9764;BME280;4921;43.214;27.936;2024-02-26T09:55:47;100893.91;;;14.85;57.03
9764;BME280;4921;43.214;27.936;2024-02-26T09:58:13;100887.09;;;14.30;58.76
9764;BME280;4921;43.214;27.936;2024-02-26T10:00:46;100887.59;;;14.17;58.97
9764;BME280;4921;43.214;27.936;2024-02-26T10:03:15;100874.09;;;14.34;58.72
9764;BME280;4921;43.214;27.936;2024-02-26T10:05:41;100884.84;;;14.39;58.40
9764;BME280;4921;43.214;27.936;2024-02-26T10:08:09;100874.41;;;14.29;58.79
9764;BME280;4921;43.214;27.936;2024-02-26T10:10:36;100864.66;;;14.16;59.25
9764;BME280;4921;43.214;27.936;2024-02-26T10:13:03;100872.72;;;14.25;58.91
9764;BME280;4921;43.214;27.936;2024-02-26T10:15:38;100874.19;;;14.19;58.68
9764;BME280;4921;43.214;27.936;2024-02-26T10:18:04;100884.38;;;13.92;60.62
9764;BME280;4921;43.214;27.936;2024-02-26T10:20:30;100879.56;;;13.89;60.42
9764;BME280;4921;43.214;27.936;2024-02-26T10:22:57;100874.41;;;13.88;60.67
9764;BME280;4921;43.214;27.936;2024-02-26T10:25:22;100876.91;;;13.74;60.89
9764;BME280;4921;43.214;27.936;2024-02-26T10:27:49;100865.47;;;14.39;59.48
9764;BME280;4921;43.214;27.936;2024-02-26T10:32:48;100859.53;;;14.18;60.35
9764;BME280;4921;43.214;27.936;2024-02-26T10:35:15;100868.84;;;14.29;59.44
9764;BME280;4921;43.214;27.936;2024-02-26T10:37:40;100856.75;;;14.37;58.96
9764;BME280;4921;43.214;27.936;2024-02-26T10:40:13;100844.16;;;14.43;57.89
9764;BME280;4921;43.214;27.936;2024-02-26T10:42:39;100863.47;;;14.63;58.53
9764;BME280;4921;43.214;27.936;2024-02-26T10:45:06;100854.72;;;14.61;57.21
9764;BME280;4921;43.214;27.936;2024-02-26T10:47:31;100852.97;;;14.75;57.97
9764;BME280;4921;43.214;27.936;2024-02-26T10:49:59;100848.50;;;15.23;55.78
9764;BME280;4921;43.214;27.936;2024-02-26T10:52:25;100856.94;;;14.74;57.69
9764;BME280;4921;43.214;27.936;2024-02-26T10:54:54;100846.72;;;14.56;57.59
9764;BME280;4921;43.214;27.936;2024-02-26T10:57:23;100849.50;;;15.08;56.59
9764;BME280;4921;43.214;27.936;2024-02-26T10:59:51;100847.81;;;14.74;57.76
9764;BME280;4921;43.214;27.936;2024-02-26T11:02:17;100837.88;;;14.47;57.97
9764;BME280;4921;43.214;27.936;2024-02-26T11:04:43;100817.09;;;14.60;57.01
9764;BME280;4921;43.214;27.936;2024-02-26T11:07:11;100830.38;;;14.24;58.99
9764;BME280;4921;43.214;27.936;2024-02-26T11:09:37;100828.50;;;14.28;58.04
9764;BME280;4921;43.214;27.936;2024-02-26T11:12:10;100837.34;;;14.37;57.60
9764;BME280;4921;43.214;27.936;2024-02-26T11:14:39;100837.28;;;14.34;58.01
9764;BME280;4921;43.214;27.936;2024-02-26T11:17:07;100811.66;;;14.18;57.47
9764;BME280;4921;43.214;27.936;2024-02-26T11:19:35;100823.31;;;14.27;57.53
9764;BME280;4921;43.214;27.936;2024-02-26T11:22:01;100829.69;;;13.86;59.17
9764;BME280;4921;43.214;27.936;2024-02-26T11:24:27;100822.53;;;13.43;61.57
9764;BME280;4921;43.214;27.936;2024-02-26T11:27:01;100814.22;;;13.62;59.90
9764;BME280;4921;43.214;27.936;2024-02-26T11:29:32;100828.56;;;13.49;60.85
9764;BME280;4921;43.214;27.936;2024-02-26T11:32:00;100837.59;;;13.07;61.58
9764;BME280;4921;43.214;27.936;2024-02-26T11:34:26;100815.56;;;13.30;60.71
9764;BME280;4921;43.214;27.936;2024-02-26T11:36:53;100831.19;;;13.22;61.20
9764;BME280;4921;43.214;27.936;2024-02-26T11:39:19;100834.91;;;13.11;61.67
9764;BME280;4921;43.214;27.936;2024-02-26T11:41:45;100835.84;;;12.84;62.81
9764;BME280;4921;43.214;27.936;2024-02-26T11:44:10;100833.97;;;13.03;62.08
9764;BME280;4921;43.214;27.936;2024-02-26T11:46:40;100830.97;;;13.31;62.05
9764;BME280;4921;43.214;27.936;2024-02-26T11:51:55;100814.16;;;13.40;60.44
9764;BME280;4921;43.214;27.936;2024-02-26T11:59:48;100819.75;;;13.43;61.16
9764;BME280;4921;43.214;27.936;2024-02-26T12:05:18;100813.75;;;13.79;59.61
9764;BME280;4921;43.214;27.936;2024-02-26T12:07:49;100814.19;;;13.81;59.62
9764;BME280;4921;43.214;27.936;2024-02-26T12:10:25;100804.09;;;13.92;59.56
9764;BME280;4921;43.214;27.936;2024-02-26T12:12:58;100813.63;;;13.72;60.21
9764;BME280;4921;43.214;27.936;2024-02-26T12:15:31;100814.22;;;13.62;60.27
9764;BME280;4921;43.214;27.936;2024-02-26T12:17:58;100804.72;;;13.21;61.98
9764;BME280;4921;43.214;27.936;2024-02-26T12:20:25;100818.78;;;13.32;62.22
9764;BME280;4921;43.214;27.936;2024-02-26T12:22:50;100826.25;;;13.31;62.13
9764;BME280;4921;43.214;27.936;2024-02-26T12:25:21;100818.41;;;13.33;61.61
9764;BME280;4921;43.214;27.936;2024-02-26T12:27:47;100820.53;;;13.63;60.35
9764;BME280;4921;43.214;27.936;2024-02-26T12:30:13;100809.06;;;13.03;61.73
9764;BME280;4921;43.214;27.936;2024-02-26T12:32:38;100811.47;;;13.43;60.68
9764;BME280;4921;43.214;27.936;2024-02-26T12:35:05;100807.06;;;13.19;61.80
9764;BME280;4921;43.214;27.936;2024-02-26T12:37:32;100800.84;;;13.26;61.03
9764;BME280;4921;43.214;27.936;2024-02-26T12:39:57;100807.63;;;13.48;61.02
9764;BME280;4921;43.214;27.936;2024-02-26T12:42:23;100806.72;;;12.86;62.22
9764;BME280;4921;43.214;27.936;2024-02-26T12:44:49;100795.91;;;13.16;62.23
9764;BME280;4921;43.214;27.936;2024-02-26T12:47:15;100797.78;;;13.31;61.59
9764;BME280;4921;43.214;27.936;2024-02-26T12:49:42;100798.53;;;13.28;61.60
9764;BME280;4921;43.214;27.936;2024-02-26T12:52:10;100794.53;;;13.45;60.12
9764;BME280;4921;43.214;27.936;2024-02-26T12:54:35;100801.25;;;13.66;60.48
9764;BME280;4921;43.214;27.936;2024-02-26T12:57:05;100807.75;;;13.55;60.73
9764;BME280;4921;43.214;27.936;2024-02-26T12:59:32;100805.16;;;13.23;62.40
9764;BME280;4921;43.214;27.936;2024-02-26T13:02:00;100804.72;;;13.02;63.20
9764;BME280;4921;43.214;27.936;2024-02-26T13:04:28;100805.69;;;12.94;63.07
9764;BME280;4921;43.214;27.936;2024-02-26T13:06:54;100807.78;;;12.82;63.42
9764;BME280;4921;43.214;27.936;2024-02-26T13:09:20;100812.28;;;12.71;63.58
9764;BME280;4921;43.214;27.936;2024-02-26T13:11:53;100804.28;;;12.50;64.58